createdAt,value
2018-07-14T00:02:33.935Z,95758.33
2018-07-14T00:05:09.463Z,95764.10
2018-07-14T00:07:55.647Z,95760.33
2018-07-14T00:10:29.104Z,95756.55
2018-07-14T00:15:41.804Z,95751.36
2018-07-14T00:18:15.497Z,95748.30
2018-07-14T00:20:49.084Z,95749.36
2018-07-14T00:25:58.940Z,95746.53
2018-07-14T00:28:33.341Z,95743.42
2018-07-14T00:31:09.580Z,95742.59
2018-07-14T00:36:21.033Z,95743.20
2018-07-14T00:38:56.308Z,95739.52
2018-07-14T00:41:31.294Z,95740.43
2018-07-14T00:44:05.798Z,95739.97
2018-07-14T00:46:39.217Z,95742.03
2018-07-14T00:49:12.249Z,95739.70
2018-07-14T00:54:21.971Z,95739.77
2018-07-14T00:56:56.161Z,95735.80
2018-07-14T00:59:28.838Z,95741.03
2018-07-14T01:02:02.719Z,95743.02
2018-07-14T01:04:35.699Z,95744.08
2018-07-14T01:07:08.993Z,95744.82
2018-07-14T01:12:19.754Z,95745.08
2018-07-14T01:17:29.447Z,95742.59
2018-07-14T01:22:41.527Z,95748.73
2018-07-14T01:27:58.672Z,95751.42
2018-07-14T01:30:31.010Z,95752.00
2018-07-14T01:33:06.554Z,95750.19
2018-07-14T01:35:40.897Z,95756.78
2018-07-14T01:38:15.023Z,95757.25
2018-07-14T01:40:49.316Z,95753.30
2018-07-14T01:45:55.550Z,95747.75
2018-07-14T01:48:24.664Z,95739.16
2018-07-14T01:50:53.796Z,95735.27
2018-07-14T01:55:58.727Z,95730.13
2018-07-14T01:58:27.769Z,95724.29
2018-07-14T02:00:56.836Z,95718.70
2018-07-14T02:03:27.897Z,95715.70
2018-07-14T02:05:56.950Z,95714.45
2018-07-14T02:08:26.006Z,95718.05
2018-07-14T02:14:09.109Z,95717.59
2018-07-14T02:16:38.195Z,95715.33
2018-07-14T02:19:07.267Z,95708.88
2018-07-14T02:24:12.073Z,95708.95
2018-07-14T02:26:41.131Z,95716.16
2018-07-14T02:29:11.168Z,95725.59
2018-07-14T02:31:41.218Z,95729.40
2018-07-14T02:34:10.275Z,95729.59
2018-07-14T02:36:39.383Z,95735.42
2018-07-14T02:39:10.443Z,95732.89
2018-07-14T02:41:39.500Z,95732.36
2018-07-14T02:44:08.548Z,95736.66
2018-07-14T02:51:49.052Z,95737.23
2018-07-14T02:54:18.136Z,95739.12
2018-07-14T02:56:47.162Z,95741.02
2018-07-14T02:59:16.293Z,95733.21
2018-07-14T03:04:21.110Z,95725.39
2018-07-14T03:06:52.153Z,95730.34
2018-07-14T03:09:21.196Z,95737.53
2018-07-14T03:11:50.410Z,95736.03
2018-07-14T03:14:19.452Z,95729.41
2018-07-14T03:16:50.481Z,95727.06
2018-07-14T03:19:19.546Z,95727.06
2018-07-14T03:21:48.581Z,95730.23
2018-07-14T03:24:17.637Z,95729.81
2018-07-14T03:26:46.682Z,95734.86
2018-07-14T03:29:19.754Z,95734.19
2018-07-14T03:31:52.670Z,95741.14
2018-07-14T03:36:57.422Z,95745.30
2018-07-14T03:39:27.389Z,95742.44
2018-07-14T03:41:56.439Z,95754.03
2018-07-14T03:44:25.662Z,95758.23
2018-07-14T03:46:54.718Z,95761.93
2018-07-14T03:49:23.784Z,95763.59
2018-07-14T03:51:52.842Z,95762.95
2018-07-14T03:54:22.933Z,95762.61
2018-07-14T03:56:52.025Z,95757.27
2018-07-14T03:59:21.065Z,95755.87
2018-07-14T04:01:50.125Z,95757.12
2018-07-14T04:04:19.345Z,95758.54
2018-07-14T04:09:26.334Z,95758.28
2018-07-14T04:11:56.453Z,95762.78
2018-07-14T04:14:29.653Z,95760.19
2018-07-14T04:17:04.177Z,95762.65
2018-07-14T04:19:33.239Z,95760.91
2018-07-14T04:22:02.463Z,95754.72
2018-07-14T04:24:31.523Z,95757.48
2018-07-14T04:29:37.252Z,95751.99
2018-07-14T04:34:42.315Z,95754.98
2018-07-14T04:37:11.367Z,95763.02
2018-07-14T04:39:40.427Z,95760.70
2018-07-14T04:42:09.501Z,95763.30
2018-07-14T04:47:16.201Z,95765.73
2018-07-14T04:49:46.389Z,95758.97
2018-07-14T04:52:15.505Z,95761.44
2018-07-14T04:54:44.554Z,95761.11
2018-07-14T04:57:13.616Z,95757.82
2018-07-14T04:59:43.009Z,95760.18
2018-07-14T05:02:12.065Z,95762.86
2018-07-14T05:04:41.205Z,95763.98
2018-07-14T05:07:11.239Z,95770.02
2018-07-14T05:12:16.024Z,95774.35
2018-07-14T05:14:46.069Z,95777.53
2018-07-14T05:17:15.147Z,95772.89
2018-07-14T05:19:44.175Z,95771.41
2018-07-14T05:22:14.257Z,95772.42
2018-07-14T05:24:43.316Z,95766.15
2018-07-14T05:27:12.375Z,95763.98
2018-07-14T05:29:41.793Z,95768.30
2018-07-14T05:32:14.420Z,95768.44
2018-07-14T05:34:43.776Z,95768.69
2018-07-14T05:37:12.825Z,95769.03
2018-07-14T05:39:41.873Z,95770.14
2018-07-14T05:42:12.386Z,95776.59
2018-07-14T05:44:41.461Z,95773.92
2018-07-14T05:47:12.499Z,95772.69
2018-07-14T05:49:41.551Z,95774.39
2018-07-14T05:52:12.933Z,95773.27
2018-07-14T05:57:17.930Z,95770.75
2018-07-14T05:59:47.158Z,95765.44
2018-07-14T06:02:16.221Z,95764.71
2018-07-14T06:07:23.014Z,95767.78
2018-07-14T06:09:52.057Z,95770.20
2018-07-14T06:12:22.160Z,95766.78
2018-07-14T06:14:51.411Z,95763.17
2018-07-14T06:19:56.202Z,95770.58
2018-07-14T06:22:26.363Z,95768.81
2018-07-14T06:24:58.646Z,95775.77
2018-07-14T06:27:27.719Z,95776.70
2018-07-14T06:29:56.776Z,95773.64
2018-07-14T06:32:27.292Z,95769.05
2018-07-14T06:34:56.808Z,95770.66
2018-07-14T06:37:27.846Z,95768.09
2018-07-14T06:39:56.904Z,95767.81
2018-07-14T06:42:28.932Z,95768.64
2018-07-14T06:44:59.995Z,95768.30
2018-07-14T06:47:32.025Z,95770.01
2018-07-14T06:50:03.080Z,95764.55
2018-07-14T06:52:33.310Z,95770.27
2018-07-14T06:55:05.984Z,95771.36
2018-07-14T06:57:35.030Z,95771.05
2018-07-14T07:00:04.100Z,95773.97
2018-07-14T07:02:34.101Z,95771.42
2018-07-14T07:05:05.149Z,95774.37
2018-07-14T07:07:35.751Z,95769.39
2018-07-14T07:10:04.792Z,95771.39
2018-07-14T07:12:34.797Z,95767.89
2018-07-14T07:15:05.837Z,95766.30
2018-07-14T07:17:35.555Z,95770.50
2018-07-14T07:20:06.906Z,95772.55
2018-07-14T07:22:35.965Z,95766.55
2018-07-14T07:25:05.015Z,95772.63
2018-07-14T07:27:37.880Z,95769.57
2018-07-14T07:30:07.918Z,95773.99
2018-07-14T07:35:12.795Z,95776.67
2018-07-14T07:37:41.981Z,95780.19
2018-07-14T07:40:11.186Z,95780.83
2018-07-14T07:42:40.446Z,95780.34
2018-07-14T07:47:45.252Z,95773.88
2018-07-14T07:50:14.693Z,95772.16
2018-07-14T07:55:20.541Z,95771.45
2018-07-14T07:57:53.793Z,95765.30
2018-07-14T08:00:26.585Z,95764.27
2018-07-14T08:05:32.403Z,95764.00
2018-07-14T08:08:03.393Z,95767.33
2018-07-14T08:10:34.437Z,95766.11
2018-07-14T08:13:03.736Z,95761.38
2018-07-14T08:15:32.789Z,95756.88
2018-07-14T08:18:01.852Z,95753.08
2018-07-14T08:23:06.795Z,95752.53
2018-07-14T08:25:36.655Z,95746.80
2018-07-14T08:28:09.866Z,95742.91
2018-07-14T08:30:38.924Z,95747.02
2018-07-14T08:33:12.100Z,95745.61
2018-07-14T08:38:17.127Z,95748.20
2018-07-14T08:40:48.112Z,95742.63
2018-07-14T08:43:17.174Z,95740.07
2018-07-14T08:45:46.463Z,95742.50
2018-07-14T08:50:51.282Z,95743.42
2018-07-14T08:53:24.745Z,95740.98
2018-07-14T08:58:29.638Z,95733.91
2018-07-14T09:01:00.195Z,95731.05
2018-07-14T09:08:40.771Z,95735.23
2018-07-14T09:11:09.829Z,95734.85
2018-07-14T09:16:14.726Z,95731.83
2018-07-14T09:18:44.845Z,95731.13
2018-07-14T09:21:14.174Z,95727.06
2018-07-14T09:23:46.647Z,95729.34
2018-07-14T09:26:15.704Z,95727.30
2018-07-14T09:28:44.742Z,95720.02
2018-07-14T09:31:13.960Z,95717.06
2018-07-14T09:33:43.008Z,95715.23
2018-07-14T09:36:14.091Z,95715.13
2018-07-14T09:38:43.220Z,95718.08
2018-07-14T09:41:12.702Z,95717.07
2018-07-14T09:43:41.829Z,95712.00
2018-07-14T09:46:10.893Z,95718.97
2018-07-14T09:48:40.281Z,95709.02
2018-07-14T09:53:45.132Z,95707.44
2018-07-14T09:56:15.510Z,95705.13
2018-07-14T09:58:44.573Z,95699.80
2018-07-14T10:01:14.556Z,95700.95
2018-07-14T10:03:43.638Z,95699.03
2018-07-14T10:06:14.848Z,95693.52
2018-07-14T10:08:43.900Z,95703.35
2018-07-14T10:11:12.966Z,95703.83
2018-07-14T10:13:42.556Z,95696.75
2018-07-14T10:16:11.597Z,95695.29
2018-07-14T10:18:41.618Z,95692.15
2018-07-14T10:21:10.694Z,95689.69
2018-07-14T10:23:40.104Z,95690.86
2018-07-14T10:26:09.198Z,95688.44
2018-07-14T10:28:38.261Z,95687.99
2018-07-14T10:31:11.107Z,95680.26
2018-07-14T10:33:40.559Z,95678.89
2018-07-14T10:36:10.765Z,95674.42
2018-07-14T10:41:15.817Z,95673.64
2018-07-14T10:46:22.600Z,95661.05
2018-07-14T10:48:52.421Z,95652.38
2018-07-14T10:53:58.541Z,95664.19
2018-07-14T10:56:27.781Z,95665.48
2018-07-14T10:58:56.799Z,95666.16
2018-07-14T11:01:25.985Z,95668.94
2018-07-14T11:03:55.834Z,95668.83
2018-07-14T11:06:24.876Z,95671.16
2018-07-14T11:08:53.925Z,95669.50
2018-07-14T11:11:23.289Z,95666.19
2018-07-14T11:16:30.322Z,95655.39
2018-07-14T11:18:59.777Z,95647.52
2018-07-14T11:21:28.833Z,95642.02
2018-07-14T11:23:57.886Z,95636.84
2018-07-14T11:26:27.637Z,95641.41
2018-07-14T11:28:57.238Z,95636.84
2018-07-14T11:31:26.361Z,95632.83
2018-07-14T11:33:56.362Z,95632.32
2018-07-14T11:36:25.970Z,95631.84
2018-07-14T11:38:56.147Z,95629.67
2018-07-14T11:41:25.186Z,95629.17
2018-07-14T11:43:54.256Z,95628.37
2018-07-14T11:46:23.537Z,95625.34
2018-07-14T11:48:56.260Z,95618.62
2018-07-14T11:51:25.353Z,95616.67
2018-07-14T11:53:54.452Z,95614.13
2018-07-14T11:56:23.909Z,95609.46
2018-07-14T11:58:52.969Z,95602.59
2018-07-14T12:01:22.062Z,95602.10
2018-07-14T12:06:27.780Z,95594.25
2018-07-14T12:16:44.881Z,95588.17
2018-07-14T12:19:14.037Z,95588.98
2018-07-14T12:21:43.089Z,95585.03
2018-07-14T12:24:12.142Z,95588.29
2018-07-14T12:26:42.193Z,95578.51
2018-07-14T12:29:11.726Z,95577.09
2018-07-14T12:31:41.681Z,95573.79
2018-07-14T12:34:10.871Z,95578.13
2018-07-14T12:36:40.910Z,95589.97
2018-07-14T12:39:10.563Z,95596.68
2018-07-14T12:41:39.685Z,95597.61
2018-07-14T12:44:08.758Z,95605.86
2018-07-14T12:46:38.142Z,95610.33
2018-07-14T12:49:08.798Z,95612.45
2018-07-14T12:51:38.037Z,95605.25
2018-07-14T12:54:09.217Z,95607.77
2018-07-14T12:56:39.038Z,95600.88
2018-07-14T13:01:44.390Z,95598.58
2018-07-14T13:04:13.673Z,95588.37
2018-07-14T13:06:42.794Z,95579.02
2018-07-14T13:09:11.881Z,95577.34
2018-07-14T13:11:41.264Z,95569.33
2018-07-14T13:14:11.329Z,95566.61
2018-07-14T13:16:40.545Z,95570.64
2018-07-14T13:19:10.208Z,95574.89
2018-07-14T13:24:15.331Z,95573.22
2018-07-14T13:26:45.424Z,95577.48
2018-07-14T13:29:14.628Z,95587.77
2018-07-14T13:31:43.755Z,95589.05
2018-07-14T13:34:14.316Z,95582.30
2018-07-14T13:36:43.417Z,95572.94
2018-07-14T13:39:12.461Z,95567.26
2018-07-14T13:41:41.701Z,95565.80
2018-07-14T13:44:11.922Z,95564.59
2018-07-14T13:49:19.440Z,95565.44
2018-07-14T13:51:49.156Z,95561.09
2018-07-14T13:56:59.165Z,95560.59
2018-07-14T13:59:28.358Z,95554.50
2018-07-14T14:01:58.619Z,95557.62
2018-07-14T14:04:27.860Z,95556.33
2018-07-14T14:06:57.021Z,95554.80
2018-07-14T14:09:26.402Z,95566.31
2018-07-14T14:11:55.600Z,95568.05
2018-07-14T14:14:25.634Z,95576.47
2018-07-14T14:16:56.677Z,95579.63
2018-07-14T14:19:26.094Z,95580.47
2018-07-14T14:21:55.288Z,95575.59
2018-07-14T14:27:00.324Z,95564.09
2018-07-14T14:29:29.489Z,95559.25
2018-07-14T14:31:58.546Z,95556.15
2018-07-14T14:34:28.794Z,95553.36
2018-07-14T14:36:57.958Z,95553.77
2018-07-14T14:39:26.991Z,95558.61
2018-07-14T14:41:56.291Z,95558.02
2018-07-14T14:44:25.608Z,95565.04
2018-07-14T14:46:54.680Z,95557.05
2018-07-14T14:49:23.726Z,95547.50
2018-07-14T14:54:28.637Z,95568.45
2018-07-14T14:59:34.089Z,95577.34
2018-07-14T15:02:03.429Z,95577.50
2018-07-14T15:07:08.384Z,95574.11
2018-07-14T15:09:38.581Z,95581.81
2018-07-14T15:12:10.246Z,95587.53
2018-07-14T15:14:39.518Z,95606.67
2018-07-14T15:19:45.105Z,95613.30
2018-07-14T15:22:21.267Z,95594.59
2018-07-14T15:32:49.107Z,95628.59
2018-07-14T15:35:23.042Z,95636.73
2018-07-14T15:40:31.954Z,95678.89
2018-07-14T15:45:38.390Z,95686.34
2018-07-14T15:48:07.662Z,95673.86
2018-07-14T15:50:42.641Z,95636.97
2018-07-14T15:53:12.009Z,95603.59
2018-07-14T15:55:44.212Z,95590.95
2018-07-14T15:58:13.117Z,95580.23
2018-07-14T16:00:42.550Z,95572.98
2018-07-14T16:03:13.088Z,95586.28
2018-07-14T16:05:42.034Z,95580.69
2018-07-14T16:08:10.576Z,95574.30
2018-07-14T16:10:39.104Z,95575.41
2018-07-14T16:13:09.080Z,95581.05
2018-07-14T16:15:37.640Z,95582.78
2018-07-14T16:18:06.220Z,95579.44
2018-07-14T16:20:35.306Z,95583.24
2018-07-14T16:23:03.849Z,95589.41
2018-07-14T16:25:32.440Z,95586.95
2018-07-14T16:28:01.631Z,95588.80
2018-07-14T16:30:30.129Z,95584.95
2018-07-14T16:32:58.677Z,95583.01
2018-07-14T16:35:28.367Z,95579.50
2018-07-14T16:38:00.376Z,95576.27
2018-07-14T16:40:28.915Z,95575.46
2018-07-14T16:42:57.444Z,95572.36
2018-07-14T16:45:26.312Z,95572.78
2018-07-14T16:47:55.854Z,95572.44
2018-07-14T16:50:24.385Z,95575.84
2018-07-14T16:52:54.112Z,95573.11
2018-07-14T16:55:22.652Z,95573.83
2018-07-14T16:57:51.185Z,95576.55
2018-07-14T17:00:20.622Z,95574.58
2018-07-14T17:02:50.950Z,95569.85
2018-07-14T17:05:19.462Z,95563.74
2018-07-14T17:07:47.991Z,95565.31
2018-07-14T17:10:16.530Z,95562.48
2018-07-14T17:12:46.032Z,95556.87
2018-07-14T17:15:22.405Z,95556.30
2018-07-14T17:17:52.862Z,95559.25
2018-07-14T17:20:21.684Z,95563.33
2018-07-14T17:22:51.413Z,95562.38
2018-07-14T17:25:20.376Z,95562.12
2018-07-14T17:27:48.955Z,95554.28
2018-07-14T17:30:17.968Z,95549.91
2018-07-14T17:32:48.452Z,95550.13
2018-07-14T17:35:16.980Z,95556.58
2018-07-14T17:37:45.517Z,95561.55
2018-07-14T17:40:14.052Z,95562.84
2018-07-14T17:42:43.497Z,95552.87
2018-07-14T17:45:12.021Z,95551.84
2018-07-14T17:47:41.799Z,95544.78
2018-07-14T17:50:10.321Z,95543.52
2018-07-14T17:52:38.847Z,95543.27
2018-07-14T17:55:10.762Z,95541.31
2018-07-14T17:57:41.341Z,95533.77
2018-07-14T18:00:11.204Z,95533.72
2018-07-14T18:02:39.744Z,95530.42
2018-07-14T18:05:08.354Z,95528.53
2018-07-14T18:07:37.236Z,95530.49
2018-07-14T18:10:06.070Z,95527.91
2018-07-14T18:12:34.604Z,95529.23
2018-07-14T18:15:03.333Z,95530.50
2018-07-14T18:17:32.235Z,95526.01
2018-07-14T18:20:01.318Z,95525.36
2018-07-14T18:22:31.254Z,95526.58
2018-07-14T18:25:07.394Z,95525.39
2018-07-14T18:27:37.519Z,95525.86
2018-07-14T18:30:07.390Z,95531.73
2018-07-14T18:32:36.142Z,95530.84
2018-07-14T18:35:04.768Z,95522.81
2018-07-14T18:37:33.415Z,95525.62
2018-07-14T18:40:01.989Z,95528.34
2018-07-14T18:42:30.528Z,95529.91
2018-07-14T18:44:59.082Z,95529.16
2018-07-14T18:47:27.607Z,95530.31
2018-07-14T18:49:56.344Z,95525.24
2018-07-14T18:52:25.013Z,95530.26
2018-07-14T18:54:53.425Z,95530.49
2018-07-14T18:57:22.056Z,95527.73
2018-07-14T18:59:50.573Z,95538.83
2018-07-14T19:02:19.119Z,95539.96
2018-07-14T19:04:47.659Z,95541.44
2018-07-14T19:07:16.207Z,95540.52
2018-07-14T19:09:44.788Z,95548.97
2018-07-14T19:12:13.332Z,95550.31
2018-07-14T19:14:43.866Z,95557.84
2018-07-14T19:17:12.407Z,95556.10
2018-07-14T19:19:41.052Z,95556.80
2018-07-14T19:22:09.583Z,95558.51
2018-07-14T19:24:39.073Z,95558.64
2018-07-14T19:27:07.605Z,95564.59
2018-07-14T19:29:36.285Z,95563.78
2018-07-14T19:32:04.833Z,95572.17
2018-07-14T19:34:33.362Z,95569.02
2018-07-14T19:37:01.909Z,95574.19
2018-07-14T19:39:30.656Z,95580.32
2018-07-14T19:41:59.234Z,95583.27
2018-07-14T19:44:27.734Z,95585.14
2018-07-14T19:46:57.792Z,95582.38
2018-07-14T19:49:26.317Z,95581.81
2018-07-14T19:51:56.157Z,95580.95
2018-07-14T19:54:24.789Z,95584.16
2018-07-14T19:56:53.325Z,95587.15
2018-07-14T19:59:21.869Z,95583.96
2018-07-14T20:01:50.480Z,95581.41
2018-07-14T20:04:19.033Z,95590.11
2018-07-14T20:06:47.590Z,95587.09
2018-07-14T20:09:16.142Z,95584.73
2018-07-14T20:11:44.688Z,95587.78
2018-07-14T20:14:14.976Z,95585.89
2018-07-14T20:16:43.504Z,95586.72
2018-07-14T20:19:13.020Z,95588.49
2018-07-14T20:21:41.580Z,95589.67
2018-07-14T20:24:10.150Z,95588.59
2018-07-14T20:26:44.688Z,95596.05
2018-07-14T20:29:13.249Z,95598.20
2018-07-14T20:31:41.797Z,95595.02
2018-07-14T20:34:11.296Z,95593.30
2018-07-14T20:36:46.113Z,95591.68
2018-07-14T20:39:20.894Z,95591.38
2018-07-14T20:41:53.218Z,95593.22
2018-07-14T20:44:30.244Z,95596.78
2018-07-14T20:47:04.094Z,95591.55
2018-07-14T20:49:35.465Z,95589.72
2018-07-14T20:52:04.696Z,95592.25
2018-07-14T20:54:39.603Z,95594.55
2018-07-14T20:57:22.882Z,95589.53
2018-07-14T20:59:58.783Z,95591.08
2018-07-14T21:02:28.061Z,95590.05
2018-07-14T21:04:57.744Z,95595.26
2018-07-14T21:07:27.210Z,95592.89
2018-07-14T21:10:15.001Z,95590.59
2018-07-14T21:12:43.669Z,95591.19
2018-07-14T21:15:12.133Z,95594.13
2018-07-14T21:17:43.669Z,95595.97
2018-07-14T21:20:14.211Z,95595.81
2018-07-14T21:22:42.891Z,95592.54
2018-07-14T21:25:11.447Z,95591.30
2018-07-14T21:27:40.022Z,95591.68
2018-07-14T21:30:08.632Z,95590.61
2018-07-14T21:32:37.163Z,95590.84
2018-07-14T21:35:05.694Z,95591.96
2018-07-14T21:37:34.909Z,95588.30
2018-07-14T21:40:03.487Z,95588.67
2018-07-14T21:42:31.980Z,95585.64
2018-07-14T21:45:00.545Z,95588.25
2018-07-14T21:47:29.085Z,95587.92
2018-07-14T21:49:57.616Z,95594.08
2018-07-14T21:52:26.185Z,95593.06
2018-07-14T21:54:56.698Z,95591.19
2018-07-14T21:57:25.307Z,95586.86
2018-07-14T21:59:53.890Z,95585.80
2018-07-14T22:02:22.420Z,95587.20
2018-07-14T22:04:51.952Z,95586.77
2018-07-14T22:07:22.528Z,95586.27
2018-07-14T22:09:51.063Z,95583.69
2018-07-14T22:12:19.636Z,95585.06
2018-07-14T22:14:49.215Z,95584.95
2018-07-14T22:17:17.713Z,95588.02
2018-07-14T22:19:47.178Z,95586.16
2018-07-14T22:22:15.748Z,95584.62
2018-07-14T22:24:44.288Z,95580.69
2018-07-14T22:27:12.864Z,95579.69
2018-07-14T22:29:41.415Z,95580.63
2018-07-14T22:32:09.941Z,95577.16
2018-07-14T22:34:38.571Z,95572.58
2018-07-14T22:37:07.997Z,95570.63
2018-07-14T22:39:36.545Z,95571.27
2018-07-14T22:42:05.988Z,95575.50
2018-07-14T22:44:34.525Z,95575.23
2018-07-14T22:47:03.062Z,95577.98
2018-07-14T22:49:31.615Z,95580.37
2018-07-14T22:52:02.087Z,95582.42
2018-07-14T22:54:30.625Z,95584.56
2018-07-14T22:57:00.086Z,95587.75
2018-07-14T22:59:35.632Z,95580.87
2018-07-14T23:02:05.136Z,95580.09
2018-07-14T23:04:33.685Z,95583.31
2018-07-14T23:07:03.242Z,95581.67
2018-07-14T23:09:31.786Z,95574.56
2018-07-14T23:12:00.309Z,95573.91
2018-07-14T23:14:28.878Z,95572.36
2018-07-14T23:16:57.412Z,95572.54
2018-07-14T23:19:25.977Z,95567.34
2018-07-14T23:21:54.516Z,95566.84
2018-07-14T23:24:23.991Z,95562.30
2018-07-14T23:26:56.232Z,95558.64
2018-07-14T23:29:24.759Z,95560.74
2018-07-14T23:31:53.306Z,95562.44
2018-07-14T23:34:21.840Z,95559.86
2018-07-14T23:36:50.392Z,95560.86
2018-07-14T23:39:20.819Z,95559.24
2018-07-14T23:41:49.360Z,95557.52
2018-07-14T23:44:17.921Z,95556.69
2018-07-14T23:46:46.487Z,95559.52
2018-07-14T23:49:15.060Z,95560.14
2018-07-14T23:51:43.642Z,95560.45
2018-07-14T23:54:15.220Z,95554.66
2018-07-14T23:56:45.739Z,95549.56
2018-07-14T23:59:14.286Z,95552.46
